createdAt,value
2023-02-07T00:01:16.555Z,-7.21
2023-02-07T00:04:37.082Z,-7.22
2023-02-07T00:07:57.619Z,-7.24
2023-02-07T00:11:23.456Z,-7.26
2023-02-07T00:14:44.006Z,-7.37
2023-02-07T00:18:07.266Z,-7.34
2023-02-07T00:21:29.596Z,-7.37
2023-02-07T00:24:52.546Z,-7.41
2023-02-07T00:28:13.250Z,-7.40
2023-02-07T00:31:36.748Z,-7.42
2023-02-07T00:35:02.820Z,-7.52
2023-02-07T00:38:23.159Z,-7.46
2023-02-07T00:41:45.384Z,-7.82
2023-02-07T00:45:05.773Z,-7.60
2023-02-07T00:48:26.263Z,-7.56
2023-02-07T00:51:49.696Z,-7.60
2023-02-07T00:55:11.456Z,-7.69
2023-02-07T00:58:31.968Z,-7.78
2023-02-07T01:01:52.668Z,-7.85
2023-02-07T01:05:13.058Z,-7.86
2023-02-07T01:08:36.768Z,-7.84
2023-02-07T01:11:58.230Z,-7.84
2023-02-07T01:15:19.118Z,-7.92
2023-02-07T01:18:40.191Z,-7.85
2023-02-07T01:22:04.279Z,-7.94
2023-02-07T01:25:28.547Z,-7.91
2023-02-07T01:28:48.924Z,-7.91
2023-02-07T01:32:10.448Z,-7.85
2023-02-07T01:35:31.756Z,-7.92
2023-02-07T01:38:52.197Z,-7.84
2023-02-07T01:42:19.000Z,-7.83
2023-02-07T01:45:42.663Z,-7.85
2023-02-07T01:49:11.746Z,-7.91
2023-02-07T01:52:41.524Z,-7.87
2023-02-07T01:56:09.660Z,-7.88
2023-02-07T01:59:38.964Z,-7.90
2023-02-07T02:03:00.342Z,-7.96
2023-02-07T02:06:23.716Z,-7.92
2023-02-07T02:09:44.108Z,-7.97
2023-02-07T02:13:31.540Z,-8.06
2023-02-07T02:17:09.841Z,-8.02
2023-02-07T02:21:20.809Z,-8.11
2023-02-07T02:25:29.563Z,-8.15
2023-02-07T02:29:45.381Z,-8.22
2023-02-07T02:33:35.090Z,-8.22
2023-02-07T02:37:11.865Z,-8.24
2023-02-07T02:40:47.664Z,-8.26
2023-02-07T02:44:17.182Z,-8.27
2023-02-07T02:47:41.522Z,-8.25
2023-02-07T02:51:05.668Z,-8.24
2023-02-07T02:54:35.809Z,-8.19
2023-02-07T02:58:13.458Z,-8.18
2023-02-07T03:01:34.412Z,-8.17
2023-02-07T03:05:18.580Z,-8.14
2023-02-07T03:08:42.709Z,-8.14
2023-02-07T03:12:02.430Z,-8.14
2023-02-07T03:15:20.232Z,-8.24
2023-02-07T03:18:42.379Z,-8.28
2023-02-07T03:21:55.428Z,-8.27
2023-02-07T03:25:10.882Z,-8.30
2023-02-07T03:28:22.925Z,-8.30
2023-02-07T03:31:34.850Z,-8.28
2023-02-07T03:34:53.433Z,-8.28
2023-02-07T03:38:04.063Z,-8.26
2023-02-07T03:41:23.739Z,-8.24
2023-02-07T03:44:36.416Z,-8.27
2023-02-07T03:47:42.072Z,-8.27
2023-02-07T03:50:50.073Z,-8.24
2023-02-07T03:53:55.462Z,-8.23
2023-02-07T03:57:04.859Z,-8.30
2023-02-07T04:00:13.323Z,-8.27
2023-02-07T04:03:19.573Z,-8.19
2023-02-07T04:06:25.508Z,-8.20
2023-02-07T04:09:32.276Z,-8.23
2023-02-07T04:12:40.614Z,-8.24
2023-02-07T04:15:47.035Z,-8.24
2023-02-07T04:18:52.522Z,-8.26
2023-02-07T04:21:58.806Z,-8.42
2023-02-07T04:25:04.455Z,-8.24
2023-02-07T04:28:13.606Z,-8.23
2023-02-07T04:31:19.108Z,-8.24
2023-02-07T04:34:25.782Z,-8.24
2023-02-07T04:37:31.229Z,-8.30
2023-02-07T04:40:37.669Z,-8.27
2023-02-07T04:43:45.864Z,-8.32
2023-02-07T04:46:52.418Z,-8.34
2023-02-07T04:49:57.797Z,-8.39
2023-02-07T04:53:04.063Z,-8.31
2023-02-07T04:56:10.377Z,-8.29
2023-02-07T04:59:20.055Z,-8.26
2023-02-07T05:02:25.474Z,-8.25
2023-02-07T05:05:31.838Z,-8.25
2023-02-07T05:08:39.038Z,-8.23
2023-02-07T05:11:45.445Z,-8.20
2023-02-07T05:14:59.032Z,-8.24
2023-02-07T05:18:06.225Z,-8.24
2023-02-07T05:21:11.700Z,-8.33
2023-02-07T05:24:18.028Z,-8.30
2023-02-07T05:27:23.442Z,-8.36
2023-02-07T05:30:32.957Z,-8.37
2023-02-07T05:33:38.466Z,-8.35
2023-02-07T05:36:45.025Z,-8.30
2023-02-07T05:39:50.451Z,-8.26
2023-02-07T05:42:56.900Z,-8.21
2023-02-07T05:46:05.078Z,-8.15
2023-02-07T05:49:12.069Z,-8.10
2023-02-07T05:52:17.583Z,-8.06
2023-02-07T05:55:24.130Z,-8.00
2023-02-07T05:58:29.756Z,-7.94
2023-02-07T06:01:37.992Z,-7.84
2023-02-07T06:04:44.726Z,-7.76
2023-02-07T06:08:08.568Z,-7.65
2023-02-07T06:11:14.919Z,-7.55
2023-02-07T06:14:20.736Z,-7.51
2023-02-07T06:17:29.940Z,-7.46
2023-02-07T06:20:35.432Z,-7.41
2023-02-07T06:23:41.914Z,-7.40
2023-02-07T06:26:47.481Z,-7.42
2023-02-07T06:29:53.815Z,-7.29
2023-02-07T06:33:02.644Z,-7.27
2023-02-07T06:36:10.710Z,-7.27
2023-02-07T06:39:16.259Z,-7.29
2023-02-07T06:42:22.619Z,-7.19
2023-02-07T06:45:28.049Z,-7.14
2023-02-07T06:48:37.196Z,-7.10
2023-02-07T06:51:43.500Z,-7.03
2023-02-07T06:54:49.868Z,-7.04
2023-02-07T06:57:55.393Z,-6.99
2023-02-07T07:01:01.596Z,-6.98
2023-02-07T07:04:09.816Z,-6.80
2023-02-07T07:07:16.104Z,-6.72
2023-02-07T07:10:23.474Z,-6.62
2023-02-07T07:13:29.811Z,-6.54
2023-02-07T07:16:35.740Z,-6.51
2023-02-07T07:19:44.774Z,-6.50
2023-02-07T07:22:51.585Z,-6.40
2023-02-07T07:25:57.849Z,-6.42
2023-02-07T07:29:03.371Z,-6.41
2023-02-07T07:32:17.788Z,-6.38
2023-02-07T07:35:34.036Z,-6.32
2023-02-07T07:38:41.643Z,-6.27
2023-02-07T07:41:47.557Z,-6.18
2023-02-07T07:45:10.358Z,-6.16
2023-02-07T07:48:15.827Z,-6.23
2023-02-07T07:51:25.061Z,-6.24
2023-02-07T07:54:30.614Z,-6.27
2023-02-07T07:57:38.015Z,-6.13
2023-02-07T08:00:43.507Z,-6.12
2023-02-07T08:03:49.828Z,-5.98
2023-02-07T08:06:58.434Z,-5.91
2023-02-07T08:10:05.922Z,-5.87
2023-02-07T08:13:12.140Z,-5.92
2023-02-07T08:16:20.612Z,-6.17
2023-02-07T08:19:26.736Z,-5.84
2023-02-07T08:22:38.943Z,-5.87
2023-02-07T08:25:46.651Z,-5.77
2023-02-07T08:28:53.057Z,-5.71
2023-02-07T08:31:58.745Z,-5.67
2023-02-07T08:35:05.990Z,-5.63
2023-02-07T08:38:15.274Z,-5.57
2023-02-07T08:41:22.282Z,-5.49
2023-02-07T08:44:27.817Z,-5.41
2023-02-07T08:47:34.547Z,-5.49
2023-02-07T08:50:40.459Z,-5.52
2023-02-07T08:53:49.755Z,-5.51
2023-02-07T08:56:55.512Z,-5.51
2023-02-07T09:00:02.712Z,-5.49
2023-02-07T09:03:09.091Z,-5.49
2023-02-07T09:06:18.757Z,-5.44
2023-02-07T09:09:27.481Z,-5.36
2023-02-07T09:12:34.236Z,-5.26
2023-02-07T09:15:39.772Z,-5.20
2023-02-07T09:18:46.495Z,-5.17
2023-02-07T09:21:52.474Z,-5.11
2023-02-07T09:25:01.750Z,-5.11
2023-02-07T09:28:07.684Z,-5.34
2023-02-07T09:31:17.527Z,-5.12
2023-02-07T09:34:23.242Z,-4.98
2023-02-07T09:37:31.172Z,-4.98
2023-02-07T09:41:59.188Z,-5.02
2023-02-07T09:45:20.187Z,-5.00
2023-02-07T09:48:35.099Z,-4.86
2023-02-07T09:51:45.730Z,-4.78
2023-02-07T09:54:57.524Z,-4.66
2023-02-07T09:58:15.329Z,-4.74
2023-02-07T10:01:30.610Z,-4.64
2023-02-07T10:04:47.254Z,-4.54
2023-02-07T10:07:53.720Z,-4.41
2023-02-07T10:11:20.852Z,-4.21
2023-02-07T10:15:02.078Z,-4.07
2023-02-07T10:18:38.267Z,-3.89
2023-02-07T10:22:01.154Z,-3.78
2023-02-07T10:25:33.944Z,-3.71
2023-02-07T10:29:25.309Z,-3.61
2023-02-07T10:32:39.187Z,-3.46
2023-02-07T10:35:49.910Z,-3.41
2023-02-07T10:39:09.971Z,-3.26
2023-02-07T10:42:20.481Z,-3.16
2023-02-07T10:45:31.810Z,-3.14
2023-02-07T10:48:38.922Z,-3.16
2023-02-07T10:51:49.834Z,-3.13
2023-02-07T10:54:59.172Z,-3.12
2023-02-07T10:58:17.782Z,-3.13
2023-02-07T11:01:32.303Z,-3.20
2023-02-07T11:04:46.608Z,-3.33
2023-02-07T11:08:02.862Z,-3.25
2023-02-07T11:11:32.751Z,-3.23
2023-02-07T11:14:42.780Z,-3.38
2023-02-07T11:17:55.437Z,-3.39
2023-02-07T11:21:01.201Z,-3.40
2023-02-07T11:24:19.396Z,-3.35
2023-02-07T11:27:26.907Z,-3.33
2023-02-07T11:30:40.271Z,-3.36
2023-02-07T11:33:47.124Z,-3.28
2023-02-07T11:36:54.379Z,-3.31
2023-02-07T11:40:29.927Z,-4.54
2023-02-07T11:43:38.139Z,-3.80
2023-02-07T11:46:49.521Z,-3.33
2023-02-07T11:50:02.016Z,-3.40
2023-02-07T11:53:07.968Z,-3.37
